Time;durP1;ratioP1;P1;durP2;ratioP2;P2;SDS_P1;SDS_P2;PMS_P1;PMS_P2;Temp;Humidity;BMP_temperature;BMP_pressure;BME280_temperature;BME280_humidity;BME280_pressure;Samples;Min_cycle;Max_cycle;Signal;HPM_P1;HPM_P2
2021/12/14 00:01:10;;;;;;;29.17;18.38;;;8.60;99.90;;;;;;5007019;28;20057;-81
2021/12/14 00:03:40;;;;;;;29.35;19.13;;;8.60;99.90;;;;;;5019328;28;20046;-81
2021/12/14 00:06:12;;;;;;;32.72;19.20;;;8.60;99.90;;;;;;5004546;28;20046;-81
2021/12/14 00:08:55;;;;;;;31.40;18.95;;;8.60;99.90;;;;;;5018810;28;20049;-81
2021/12/14 00:11:50;;;;;;;27.95;18.35;;;8.50;99.90;;;;;;5020854;28;20501;-81
2021/12/14 00:16:58;;;;;;;29.52;18.35;;;8.40;99.90;;;;;;5017335;28;20057;-81
2021/12/14 00:19:28;;;;;;;29.70;19.02;;;8.40;99.90;;;;;;4999371;28;20049;-81
2021/12/14 00:22:03;;;;;;;31.48;19.13;;;8.40;99.90;;;;;;4999566;28;20077;-81
2021/12/14 00:24:31;;;;;;;28.02;17.52;;;8.40;99.90;;;;;;4999700;28;20049;-81
2021/12/14 00:27:03;;;;;;;30.17;18.23;;;8.30;99.90;;;;;;5000507;28;20053;-82
2021/12/14 00:29:35;;;;;;;27.90;17.38;;;8.30;99.90;;;;;;5016510;28;20061;-80
2021/12/14 00:32:09;;;;;;;28.20;16.90;;;8.30;99.90;;;;;;5000123;28;20057;-81
2021/12/14 00:34:41;;;;;;;31.42;18.27;;;8.30;99.90;;;;;;4999698;28;20445;-81
2021/12/14 00:37:13;;;;;;;30.80;18.02;;;8.30;99.90;;;;;;5000129;28;20053;-82
2021/12/14 00:39:42;;;;;;;30.67;17.75;;;8.20;99.90;;;;;;5016222;28;20132;-81
2021/12/14 00:42:09;;;;;;;29.83;17.90;;;8.20;99.90;;;;;;4999050;28;20050;-81
2021/12/14 00:44:37;;;;;;;33.05;19.55;;;8.20;99.90;;;;;;5015416;28;20498;-80
2021/12/14 00:47:05;;;;;;;32.45;18.50;;;8.10;99.90;;;;;;5000048;28;20103;-80
2021/12/14 00:49:33;;;;;;;29.85;17.85;;;8.10;99.90;;;;;;4996505;28;20185;-81
2021/12/14 00:52:01;;;;;;;30.00;18.30;;;8.00;99.90;;;;;;4991607;28;20093;-81
2021/12/14 00:54:28;;;;;;;30.80;18.23;;;8.00;99.90;;;;;;5016404;28;20068;-80
2021/12/14 00:56:55;;;;;;;29.25;17.50;;;7.90;99.90;;;;;;4998474;28;20050;-81
2021/12/14 00:59:23;;;;;;;31.25;17.88;;;7.80;99.90;;;;;;5013998;28;20085;-81
2021/12/14 01:02:02;;;;;;;31.73;17.77;;;7.70;99.90;;;;;;5013633;28;20057;-81
2021/12/14 01:04:38;;;;;;;28.02;16.95;;;7.60;99.90;;;;;;5007453;28;20046;-81
2021/12/14 01:07:07;;;;;;;28.23;16.92;;;7.50;99.90;;;;;;4996883;28;20046;-82
2021/12/14 01:09:38;;;;;;;35.05;18.17;;;7.30;99.90;;;;;;4995045;28;20073;-81
2021/12/14 01:12:13;;;;;;;30.50;18.27;;;7.20;99.90;;;;;;5014139;28;20466;-81
2021/12/14 01:18:27;;;;;;;29.20;17.35;;;7.00;99.90;;;;;;4979939;28;20050;-81
2021/12/14 01:21:16;;;;;;;28.85;17.38;;;6.90;99.90;;;;;;5014159;28;20440;-81
2021/12/14 01:23:45;;;;;;;30.25;18.08;;;6.80;99.90;;;;;;4995288;28;20076;-80
2021/12/14 01:26:18;;;;;;;29.52;15.63;;;6.80;99.90;;;;;;4998526;28;20081;-81
2021/12/14 01:28:46;;;;;;;29.27;17.98;;;6.70;99.90;;;;;;4995614;28;20130;-81
2021/12/14 01:31:23;;;;;;;35.80;19.35;;;6.70;99.90;;;;;;5011573;28;20469;-81
2021/12/14 01:33:55;;;;;;;35.88;19.83;;;6.70;99.90;;;;;;4990259;28;20058;-81
2021/12/14 01:36:44;;;;;;;38.83;20.08;;;6.70;99.90;;;;;;5014364;28;20069;-81
2021/12/14 01:42:06;;;;;;;31.70;16.98;;;6.60;99.90;;;;;;5015618;28;20054;-81
2021/12/14 01:44:37;;;;;;;31.48;17.67;;;6.50;99.90;;;;;;5012577;28;20070;-81
2021/12/14 01:47:12;;;;;;;29.65;17.20;;;6.40;99.90;;;;;;4998070;28;20058;-81
2021/12/14 01:49:40;;;;;;;33.58;18.35;;;6.30;99.90;;;;;;4998666;28;20137;-81
2021/12/14 01:52:16;;;;;;;35.40;18.13;;;6.30;99.90;;;;;;4997493;28;20056;-81
2021/12/14 01:54:47;;;;;;;34.72;18.80;;;6.30;99.90;;;;;;5019022;28;20058;-81
2021/12/14 01:57:17;;;;;;;32.22;17.52;;;6.20;99.90;;;;;;5017108;28;20065;-81
2021/12/14 01:59:46;;;;;;;33.90;18.15;;;6.10;99.90;;;;;;4982584;28;20518;-81
2021/12/14 02:02:33;;;;;;;33.85;18.00;;;6.10;99.90;;;;;;5000615;28;20050;-80
2021/12/14 02:05:07;;;;;;;36.35;17.95;;;6.00;99.90;;;;;;5001979;28;20053;-80
2021/12/14 02:07:34;;;;;;;33.72;17.98;;;5.90;99.90;;;;;;5002936;28;20140;-80
2021/12/14 02:10:26;;;;;;;39.95;18.48;;;5.90;99.90;;;;;;5002147;28;20072;-79
2021/12/14 02:12:54;;;;;;;39.50;19.92;;;5.80;99.90;;;;;;5000770;28;20049;-80
2021/12/14 02:15:29;;;;;;;42.10;20.38;;;5.90;99.90;;;;;;5001973;28;20076;-80
2021/12/14 02:17:59;;;;;;;49.75;22.13;;;6.00;99.90;;;;;;5001993;28;20104;-81
2021/12/14 02:20:30;;;;;;;45.38;22.52;;;6.20;99.90;;;;;;5000516;28;20046;-80
2021/12/14 02:22:58;;;;;;;38.05;19.75;;;6.20;99.90;;;;;;5001509;28;20046;-81
2021/12/14 02:25:26;;;;;;;43.55;21.23;;;6.20;99.90;;;;;;5016763;28;20053;-82
2021/12/14 02:27:55;;;;;;;40.72;19.70;;;6.20;99.90;;;;;;5002727;28;20057;-81
2021/12/14 02:30:28;;;;;;;44.83;22.08;;;6.10;99.90;;;;;;5019498;28;20050;-81
2021/12/14 02:32:57;;;;;;;45.10;22.58;;;6.10;99.90;;;;;;4997800;28;20061;-81
2021/12/14 02:35:28;;;;;;;48.83;23.50;;;6.20;99.90;;;;;;4981723;28;20058;-81
2021/12/14 02:38:01;;;;;;;44.22;21.60;;;6.40;99.90;;;;;;4998633;28;20054;-81
2021/12/14 02:40:54;;;;;;;46.78;22.27;;;6.50;99.90;;;;;;4995526;28;20043;-82
2021/12/14 02:43:32;;;;;;;44.70;21.50;;;6.40;99.90;;;;;;5017878;28;20049;-81
2021/12/14 02:46:11;;;;;;;43.15;22.75;;;6.40;99.90;;;;;;5008186;28;20052;-81
2021/12/14 02:48:47;;;;;;;38.58;21.17;;;6.30;99.90;;;;;;4969408;28;20050;-80
2021/12/14 02:51:25;;;;;;;40.47;21.33;;;6.30;99.90;;;;;;4979309;28;20042;-80
2021/12/14 02:53:56;;;;;;;42.22;20.02;;;6.20;99.90;;;;;;4981008;28;20514;-81
2021/12/14 02:56:28;;;;;;;43.58;22.52;;;6.10;99.90;;;;;;5017136;28;20081;-81
2021/12/14 02:59:06;;;;;;;46.60;22.38;;;6.20;99.90;;;;;;5012571;28;20054;-81
2021/12/14 03:01:35;;;;;;;41.17;22.52;;;6.20;99.90;;;;;;4998594;28;20493;-81
2021/12/14 03:04:08;;;;;;;45.10;23.08;;;6.20;99.90;;;;;;5017187;28;20105;-81
2021/12/14 03:06:48;;;;;;;40.90;23.63;;;6.30;99.90;;;;;;5011185;28;20050;-81
2021/12/14 03:09:36;;;;;;;46.90;23.10;;;6.40;99.90;;;;;;5005993;28;20065;-80
2021/12/14 03:12:14;;;;;;;46.03;23.70;;;6.60;99.90;;;;;;4997944;28;20054;-81
2021/12/14 03:14:51;;;;;;;44.90;22.80;;;6.80;99.90;;;;;;5005417;28;20418;-81
2021/12/14 03:17:19;;;;;;;42.05;23.40;;;6.80;99.90;;;;;;5016781;28;20125;-81
2021/12/14 03:20:04;;;;;;;50.58;24.90;;;6.90;99.90;;;;;;5006940;28;20252;-81
2021/12/14 03:23:05;;;;;;;44.08;23.45;;;6.90;99.90;;;;;;5014807;28;20061;-79
2021/12/14 03:25:36;;;;;;;42.15;22.55;;;6.90;99.90;;;;;;4978212;28;20046;-80
2021/12/14 03:28:03;;;;;;;38.78;22.08;;;6.90;99.90;;;;;;4997661;28;20056;-81
2021/12/14 03:30:55;;;;;;;44.10;22.73;;;6.80;99.90;;;;;;4981444;28;20113;-80
2021/12/14 03:33:27;;;;;;;38.80;22.20;;;7.00;99.90;;;;;;4981215;28;20057;-80
2021/12/14 03:36:08;;;;;;;40.97;22.23;;;7.00;99.90;;;;;;5003742;28;20050;-82
2021/12/14 03:38:43;;;;;;;41.35;21.70;;;7.00;99.90;;;;;;4980890;28;20050;-80
2021/12/14 03:41:22;;;;;;;43.60;22.30;;;7.00;99.90;;;;;;4995454;28;20050;-82
2021/12/14 03:43:58;;;;;;;41.17;23.38;;;7.00;99.90;;;;;;5001838;28;20058;-80
2021/12/14 03:46:33;;;;;;;40.47;22.67;;;7.00;99.90;;;;;;4988094;28;20046;-81
2021/12/14 03:49:02;;;;;;;41.80;23.73;;;7.00;99.90;;;;;;4999083;28;20050;-82
2021/12/14 03:51:30;;;;;;;45.70;24.27;;;7.00;99.90;;;;;;4981354;28;20046;-81
2021/12/14 03:53:58;;;;;;;44.28;24.90;;;7.10;99.90;;;;;;4981505;28;20762;-80
2021/12/14 03:56:27;;;;;;;46.15;24.10;;;7.10;99.90;;;;;;4997546;28;20047;-81
2021/12/14 03:58:55;;;;;;;50.80;23.98;;;7.20;99.90;;;;;;4998377;28;20078;-79
2021/12/14 04:01:31;;;;;;;38.42;23.02;;;7.20;99.90;;;;;;4978754;28;20050;-79
2021/12/14 04:04:01;;;;;;;;;;;7.10;99.90;;;;;;4981482;28;20089;-81
2021/12/14 04:06:28;;;;;;;40.70;23.13;;;7.20;99.90;;;;;;4980963;28;19988;-81
2021/12/14 04:08:56;;;;;;;39.65;22.80;;;7.20;99.90;;;;;;4981483;28;20050;-82
2021/12/14 04:11:23;;;;;;;41.75;21.98;;;7.20;99.90;;;;;;4983808;28;20065;-82
2021/12/14 04:13:54;;;;;;;39.50;22.40;;;7.20;99.90;;;;;;4982733;28;20046;-81
2021/12/14 04:16:24;;;;;;;41.65;23.05;;;7.20;99.90;;;;;;4996007;28;20118;-81
2021/12/14 04:18:53;;;;;;;40.67;22.98;;;7.20;99.90;;;;;;4979221;28;20055;-80
2021/12/14 04:21:21;;;;;;;38.03;21.88;;;7.20;99.90;;;;;;5004249;28;20050;-82
2021/12/14 04:23:51;;;;;;;39.15;23.38;;;7.20;99.90;;;;;;5015446;28;20510;-80
2021/12/14 04:26:18;;;;;;;39.05;22.52;;;7.10;99.90;;;;;;4977005;28;20055;-81
2021/12/14 04:28:53;;;;;;;37.80;23.15;;;7.10;99.90;;;;;;4983496;28;20038;-80
2021/12/14 04:31:21;;;;;;;39.92;22.98;;;7.10;99.90;;;;;;5014636;28;20104;-81
2021/12/14 04:33:50;;;;;;;38.28;22.35;;;7.10;99.90;;;;;;5015271;28;20050;-82
2021/12/14 04:36:22;;;;;;;39.13;22.75;;;7.10;99.90;;;;;;4999238;28;20458;-82
2021/12/14 04:38:59;;;;;;;38.78;21.67;;;7.10;99.90;;;;;;4994029;28;20047;-81
2021/12/14 04:53:11;;;;;;;39.15;21.52;;;7.00;99.90;;;;;;5011769;28;20453;-81
2021/12/14 04:55:41;;;;;;;35.30;21.27;;;7.00;99.90;;;;;;4954725;28;20110;-81
2021/12/14 04:58:08;;;;;;;35.55;21.17;;;7.00;99.90;;;;;;4989644;28;20054;-82
2021/12/14 05:00:49;;;;;;;37.15;21.70;;;7.00;99.90;;;;;;5007600;28;20077;-81
2021/12/14 05:03:25;;;;;;;36.17;22.27;;;6.90;99.90;;;;;;4992161;28;20050;-81
2021/12/14 05:06:14;;;;;;;35.83;22.20;;;6.90;99.90;;;;;;5015296;28;20050;-81
2021/12/14 05:11:15;;;;;;;39.33;22.00;;;6.90;99.90;;;;;;5006781;28;20066;-80
2021/12/14 05:13:46;;;;;;;36.20;21.50;;;6.90;99.90;;;;;;5003140;28;20054;-81
2021/12/14 05:16:25;;;;;;;36.08;21.10;;;6.90;99.90;;;;;;4978478;28;20050;-80
2021/12/14 05:18:57;;;;;;;37.55;21.20;;;6.80;99.90;;;;;;4964498;28;20145;-81
2021/12/14 05:21:47;;;;;;;32.55;19.58;;;6.80;99.90;;;;;;4980481;28;20054;-80
2021/12/14 05:24:21;;;;;;;35.55;20.55;;;6.70;99.90;;;;;;4994749;28;20054;-81
2021/12/14 05:26:56;;;;;;;32.75;20.38;;;6.70;99.90;;;;;;4978832;28;20052;-81
2021/12/14 05:29:25;;;;;;;35.88;20.25;;;6.60;99.90;;;;;;4979676;28;20053;-81
2021/12/14 05:31:53;;;;;;;31.02;18.90;;;6.60;99.90;;;;;;4976472;28;20185;-81
2021/12/14 05:34:23;;;;;;;33.20;19.70;;;6.60;99.90;;;;;;4977123;28;20059;-82
2021/12/14 05:36:51;;;;;;;40.58;21.70;;;6.60;99.90;;;;;;4964894;28;20049;-81
2021/12/14 05:44:37;;;;;;;38.25;21.63;;;6.60;99.90;;;;;;4999116;28;20053;-81
2021/12/14 05:47:10;;;;;;;36.10;21.40;;;6.60;99.90;;;;;;4997223;28;20054;-82
2021/12/14 05:49:41;;;;;;;39.25;21.08;;;6.50;99.90;;;;;;4992410;28;20042;-81
2021/12/14 05:52:17;;;;;;;35.95;21.85;;;6.50;99.90;;;;;;4993812;28;20046;-78
2021/12/14 05:54:45;;;;;;;39.63;20.55;;;6.60;99.90;;;;;;4995839;28;20061;-81
2021/12/14 05:57:17;;;;;;;33.10;19.42;;;6.60;99.90;;;;;;4980450;28;20058;-81
2021/12/14 05:59:45;;;;;;;37.38;20.52;;;6.60;99.90;;;;;;4985429;28;20063;-82
2021/12/14 06:02:13;;;;;;;34.85;21.30;;;6.60;99.90;;;;;;4995716;28;20106;-81
2021/12/14 06:04:52;;;;;;;44.08;21.70;;;6.60;99.90;;;;;;4997710;28;20054;-80
2021/12/14 06:07:20;;;;;;;37.70;20.58;;;6.70;99.90;;;;;;4995967;28;20042;-79
2021/12/14 06:09:50;;;;;;;39.47;21.23;;;6.70;99.90;;;;;;4976745;28;20050;-80
2021/12/14 06:12:25;;;;;;;40.00;21.35;;;6.80;99.90;;;;;;4996769;28;20050;-81
2021/12/14 06:14:58;;;;;;;35.50;20.38;;;6.90;99.90;;;;;;4998242;28;20042;-80
2021/12/14 06:17:30;;;;;;;36.10;19.95;;;6.90;99.90;;;;;;4997378;28;20050;-79
2021/12/14 06:20:05;;;;;;;36.60;19.67;;;6.90;99.90;;;;;;4968483;28;20054;-81
2021/12/14 06:22:34;;;;;;;33.70;18.90;;;6.90;99.90;;;;;;4995498;28;20058;-79
2021/12/14 06:25:07;;;;;;;37.40;20.35;;;6.80;99.90;;;;;;4979936;28;20392;-80
2021/12/14 06:27:34;;;;;;;36.78;20.40;;;6.90;99.90;;;;;;4994247;28;20058;-80
2021/12/14 06:30:09;;;;;;;33.55;20.02;;;6.90;99.90;;;;;;4996009;28;20507;-81
2021/12/14 06:32:41;;;;;;;38.90;19.90;;;6.80;99.90;;;;;;5010204;28;20054;-80
2021/12/14 06:35:21;;;;;;;37.30;20.17;;;6.90;99.90;;;;;;4978794;28;20062;-80
2021/12/14 06:38:30;;;;;;;40.70;21.05;;;6.90;99.90;;;;;;4960010;28;20068;-82
2021/12/14 06:41:06;;;;;;;43.00;21.40;;;7.00;99.90;;;;;;4979512;28;20058;-80
2021/12/14 06:43:47;;;;;;;37.90;19.00;;;7.10;99.90;;;;;;4962506;28;20074;-81
2021/12/14 06:46:21;;;;;;;32.78;19.92;;;7.20;99.90;;;;;;4994631;28;20233;-80
2021/12/14 06:48:50;;;;;;;32.90;18.85;;;7.20;99.90;;;;;;5018427;28;20053;-82
2021/12/14 06:51:21;;;;;;;32.30;19.33;;;7.20;99.90;;;;;;5001924;28;20065;-80
2021/12/14 06:53:53;;;;;;;35.60;19.90;;;7.20;99.90;;;;;;4981542;28;20048;-81
2021/12/14 06:56:23;;;;;;;33.95;20.17;;;7.20;99.90;;;;;;4981386;28;20793;-82
2021/12/14 06:59:04;;;;;;;31.85;19.50;;;7.20;99.90;;;;;;5008726;28;20054;-79
2021/12/14 07:01:47;;;;;;;32.83;18.40;;;7.20;99.90;;;;;;4997320;28;20274;-81
2021/12/14 07:04:19;;;;;;;35.38;19.83;;;7.20;99.90;;;;;;4999001;28;20050;-81
2021/12/14 07:06:54;;;;;;;34.70;18.50;;;7.30;99.90;;;;;;5000623;28;20065;-78
2021/12/14 07:09:25;;;;;;;36.00;19.70;;;7.30;99.90;;;;;;4996831;28;20105;-79
2021/12/14 07:12:05;;;;;;;37.38;20.00;;;7.30;99.90;;;;;;4974229;28;20109;-78
2021/12/14 07:14:31;;;;;;;33.53;18.67;;;7.30;99.90;;;;;;4979036;28;20101;-81
2021/12/14 07:17:18;;;;;;;37.67;19.40;;;7.30;99.90;;;;;;4978888;28;20058;-80
2021/12/14 07:20:15;;;;;;;32.42;18.70;;;7.30;99.90;;;;;;4995464;28;20050;-80
2021/12/14 07:22:48;;;;;;;35.20;19.23;;;7.30;99.90;;;;;;4995901;28;20070;-79
2021/12/14 07:25:33;;;;;;;39.63;19.25;;;7.30;99.90;;;;;;4982820;28;20082;-80
2021/12/14 07:28:04;;;;;;;30.27;18.52;;;7.30;99.90;;;;;;5017186;28;20072;-79
2021/12/14 07:30:42;;;;;;;30.17;18.13;;;7.30;99.90;;;;;;5015074;28;20104;-79
2021/12/14 07:33:18;;;;;;;32.10;17.63;;;7.30;99.90;;;;;;5013466;28;20089;-79
2021/12/14 07:36:00;;;;;;;31.90;20.02;;;7.40;99.90;;;;;;5015438;28;20054;-80
2021/12/14 07:38:38;;;;;;;39.33;19.90;;;7.40;99.90;;;;;;5018198;28;20505;-79
2021/12/14 07:41:13;;;;;;;35.95;19.38;;;7.40;99.90;;;;;;4986346;28;20132;-80
2021/12/14 07:43:46;;;;;;;32.53;19.92;;;7.40;99.90;;;;;;4989504;28;20173;-79
2021/12/14 07:46:17;;;;;;;32.90;19.73;;;7.40;99.90;;;;;;5002219;28;20078;-79
2021/12/14 07:48:52;;;;;;;31.35;18.13;;;7.40;99.90;;;;;;4977993;28;20050;-79
2021/12/14 07:51:22;;;;;;;38.72;19.70;;;7.40;99.90;;;;;;4980315;28;20050;-79
2021/12/14 07:54:12;;;;;;;32.17;20.00;;;7.40;99.90;;;;;;4975322;28;20063;-79
2021/12/14 07:56:43;;;;;;;32.80;19.27;;;7.40;99.90;;;;;;4989709;28;20058;-78
2021/12/14 07:59:24;;;;;;;37.33;20.27;;;7.40;99.90;;;;;;4995951;28;20129;-78
2021/12/14 08:02:08;;;;;;;34.67;19.80;;;7.40;99.90;;;;;;4990357;28;20062;-80
2021/12/14 08:04:37;;;;;;;33.17;19.30;;;7.50;99.90;;;;;;4979208;28;20089;-81
2021/12/14 08:07:05;;;;;;;34.17;20.27;;;7.50;99.90;;;;;;4993928;28;20050;-79
2021/12/14 08:09:48;;;;;;;37.28;20.42;;;7.50;99.90;;;;;;4986881;28;20078;-80
2021/12/14 08:12:26;;;;;;;30.30;19.27;;;7.50;99.90;;;;;;5003613;28;20050;-81
2021/12/14 08:15:05;;;;;;;32.55;18.30;;;7.50;99.90;;;;;;4999125;28;20053;-79
2021/12/14 08:17:32;;;;;;;30.40;19.48;;;7.50;99.90;;;;;;5013776;28;20534;-80
2021/12/14 08:19:59;;;;;;;32.15;18.85;;;7.50;99.90;;;;;;5003588;28;20046;-79
2021/12/14 08:22:46;;;;;;;34.75;19.35;;;7.50;99.90;;;;;;4983977;28;20054;-80
2021/12/14 08:25:15;;;;;;;30.92;19.70;;;7.60;99.90;;;;;;4976509;28;20514;-79
2021/12/14 08:27:42;;;;;;;33.70;19.48;;;7.60;99.90;;;;;;4991975;28;20093;-80
2021/12/14 08:30:13;;;;;;;32.88;18.98;;;7.60;99.90;;;;;;4995449;28;20058;-79
2021/12/14 08:32:42;;;;;;;30.17;18.75;;;7.50;99.90;;;;;;4976686;28;20050;-79
2021/12/14 08:35:12;;;;;;;31.80;19.70;;;7.60;99.90;;;;;;4990648;28;20054;-79
2021/12/14 08:37:44;;;;;;;32.75;18.42;;;7.60;99.90;;;;;;4970800;28;20584;-81
2021/12/14 08:40:19;;;;;;;29.92;18.27;;;7.60;99.90;;;;;;4993360;28;20104;-79
2021/12/14 08:43:02;;;;;;;30.33;19.42;;;7.60;99.90;;;;;;4978218;28;20477;-79
2021/12/14 08:45:53;;;;;;;34.45;19.42;;;7.60;99.90;;;;;;4994119;28;20580;-79
2021/12/14 08:48:31;;;;;;;37.78;19.58;;;7.60;99.90;;;;;;4975833;28;20298;-79
2021/12/14 08:51:12;;;;;;;34.40;19.17;;;7.60;99.90;;;;;;4989370;28;20077;-79
2021/12/14 08:53:44;;;;;;;34.22;18.52;;;7.60;99.90;;;;;;4967311;28;20039;-80
2021/12/14 08:56:13;;;;;;;31.67;18.38;;;7.70;99.90;;;;;;4992229;28;20043;-79
2021/12/14 08:58:40;;;;;;;28.85;18.15;;;7.70;99.90;;;;;;4995483;28;20058;-78
2021/12/14 09:01:15;;;;;;;31.10;18.15;;;7.70;99.90;;;;;;4994556;28;20088;-78
2021/12/14 09:03:53;;;;;;;32.38;18.88;;;7.70;99.90;;;;;;4999632;28;20046;-80
2021/12/14 09:06:22;;;;;;;29.98;19.40;;;7.70;99.90;;;;;;4975525;28;20050;-80
2021/12/14 09:08:51;;;;;;;32.10;18.67;;;7.70;99.90;;;;;;4959529;28;20079;-79
2021/12/14 09:11:22;;;;;;;33.75;18.58;;;7.70;99.90;;;;;;4989917;28;20045;-79
2021/12/14 09:13:51;;;;;;;32.15;19.08;;;7.80;99.90;;;;;;4964570;28;20102;-80
2021/12/14 09:16:23;;;;;;;29.98;19.38;;;7.80;99.90;;;;;;5014549;28;20096;-80
2021/12/14 09:18:54;;;;;;;29.23;18.50;;;7.90;99.90;;;;;;5007940;28;20050;-78
2021/12/14 09:21:32;;;;;;;32.22;19.10;;;7.90;99.90;;;;;;5010236;28;20450;-81
2021/12/14 09:24:08;;;;;;;26.52;17.63;;;8.00;99.90;;;;;;4993398;28;20077;-80
2021/12/14 09:26:38;;;;;;;30.02;18.65;;;8.10;99.90;;;;;;4978237;28;20054;-78
2021/12/14 09:29:09;;;;;;;32.20;19.70;;;8.10;99.90;;;;;;4991825;28;20466;-78
2021/12/14 09:31:39;;;;;;;31.52;19.05;;;8.10;99.90;;;;;;4975850;28;20101;-79
2021/12/14 09:34:10;;;;;;;32.20;19.50;;;8.10;99.90;;;;;;4975001;28;20051;-80
2021/12/14 09:36:38;;;;;;;32.00;21.05;;;8.20;99.90;;;;;;4989087;28;20078;-79
2021/12/14 09:39:14;;;;;;;33.90;20.40;;;8.20;99.90;;;;;;4992508;28;20053;-78
2021/12/14 09:41:44;;;;;;;29.08;18.25;;;8.10;99.90;;;;;;4973621;28;20552;-80
2021/12/14 09:44:16;;;;;;;33.03;20.10;;;8.10;99.90;;;;;;4992326;28;20054;-80
2021/12/14 09:46:44;;;;;;;32.58;20.30;;;8.10;99.90;;;;;;4989774;28;20046;-80
2021/12/14 09:49:12;;;;;;;32.13;20.30;;;8.20;99.90;;;;;;4991741;28;20074;-79
2021/12/14 09:51:45;;;;;;;29.80;18.80;;;8.10;99.90;;;;;;4988065;28;20450;-80
2021/12/14 09:54:16;;;;;;;32.00;19.00;;;8.20;99.90;;;;;;4997183;28;20050;-79
2021/12/14 09:56:47;;;;;;;32.33;20.33;;;8.20;99.90;;;;;;4981492;28;20046;-82
2021/12/14 09:59:16;;;;;;;32.65;19.45;;;8.20;99.90;;;;;;4979822;28;20554;-80
2021/12/14 10:01:56;;;;;;;32.10;19.48;;;8.20;99.90;;;;;;4975618;28;20106;-79
2021/12/14 10:04:33;;;;;;;31.23;19.35;;;8.30;99.90;;;;;;4974208;28;20081;-80
2021/12/14 10:07:03;;;;;;;30.67;18.13;;;8.20;99.90;;;;;;4992354;28;20054;-79
2021/12/14 10:09:38;;;;;;;34.33;20.90;;;8.40;99.90;;;;;;4975480;28;20466;-79
2021/12/14 10:12:19;;;;;;;27.10;18.52;;;8.40;99.90;;;;;;4986759;28;20109;-81
2021/12/14 10:14:51;;;;;;;27.23;18.67;;;8.50;99.90;;;;;;5010971;28;20053;-80
2021/12/14 10:17:22;;;;;;;31.90;18.55;;;8.50;99.90;;;;;;5011166;28;20054;-78
2021/12/14 10:19:49;;;;;;;26.00;17.77;;;8.50;99.90;;;;;;4971134;28;20105;-79
2021/12/14 10:22:26;;;;;;;29.95;18.45;;;8.60;99.90;;;;;;4998926;28;20101;-79
2021/12/14 10:24:56;;;;;;;26.88;17.27;;;8.50;99.90;;;;;;4987571;28;20058;-80
2021/12/14 10:27:28;;;;;;;28.75;19.33;;;8.50;99.90;;;;;;4993556;28;20584;-79
2021/12/14 10:29:56;;;;;;;28.67;19.13;;;8.60;99.90;;;;;;4995771;28;20053;-79
2021/12/14 10:32:30;;;;;;;29.58;17.67;;;8.70;99.90;;;;;;5015258;28;20617;-79
2021/12/14 10:35:01;;;;;;;30.40;17.92;;;8.60;99.90;;;;;;4978979;28;20104;-79
2021/12/14 10:37:53;;;;;;;29.00;18.65;;;8.70;99.90;;;;;;4991146;28;20438;-80
2021/12/14 10:43:17;;;;;;;26.92;17.40;;;8.60;99.90;;;;;;4991598;28;20057;-78
2021/12/14 10:45:58;;;;;;;28.60;17.73;;;8.60;99.90;;;;;;4979778;28;20070;-79
2021/12/14 10:48:31;;;;;;;29.15;18.70;;;8.80;99.90;;;;;;4996579;28;20101;-79
2021/12/14 10:51:01;;;;;;;34.20;20.67;;;8.90;99.90;;;;;;4995925;28;20101;-79
2021/12/14 10:53:28;;;;;;;23.42;15.82;;;8.90;99.90;;;;;;5014822;28;20375;-79
2021/12/14 10:56:18;;;;;;;24.25;15.85;;;9.00;99.90;;;;;;5011378;28;20103;-80
2021/12/14 10:58:51;;;;;;;24.67;16.90;;;9.00;99.90;;;;;;5000464;28;20120;-79
2021/12/14 11:01:26;;;;;;;30.65;21.60;;;9.00;99.90;;;;;;4982916;28;20524;-80
2021/12/14 11:03:57;;;;;;;25.42;17.40;;;9.00;99.90;;;;;;4995879;28;20050;-79
2021/12/14 11:06:29;;;;;;;22.92;16.42;;;9.10;99.90;;;;;;4979656;28;20450;-79
2021/12/14 11:11:46;;;;;;;24.02;16.00;;;9.10;99.90;;;;;;5000659;28;20426;-79
2021/12/14 11:14:19;;;;;;;20.15;14.77;;;9.20;99.90;;;;;;4996258;28;20113;-79
2021/12/14 11:19:39;;;;;;;20.73;15.13;;;9.20;99.90;;;;;;4994867;28;20078;-79
2021/12/14 11:22:17;;;;;;;19.70;14.57;;;9.30;99.90;;;;;;4976025;28;20411;-80
2021/12/14 11:24:49;;;;;;;21.95;15.18;;;9.30;99.90;;;;;;4978363;28;20054;-79
2021/12/14 11:27:30;;;;;;;22.88;16.40;;;9.40;99.90;;;;;;4974662;28;20079;-79
2021/12/14 11:30:18;;;;;;;22.92;15.15;;;9.40;99.90;;;;;;4970129;28;20515;-78
2021/12/14 11:33:03;;;;;;;21.95;15.45;;;9.30;99.90;;;;;;4992647;28;20132;-79
2021/12/14 11:35:33;;;;;;;21.73;13.63;;;9.40;99.90;;;;;;4993199;28;20109;-79
2021/12/14 11:38:07;;;;;;;21.20;14.35;;;9.40;99.90;;;;;;4992807;28;20112;-79
2021/12/14 11:40:34;;;;;;;20.42;13.52;;;9.60;99.90;;;;;;5009549;28;20150;-79
2021/12/14 11:43:19;;;;;;;25.23;16.63;;;9.60;99.90;;;;;;5000353;28;20050;-79
2021/12/14 11:45:47;;;;;;;26.38;16.33;;;9.70;99.90;;;;;;5001666;28;20058;-81
2021/12/14 11:48:25;;;;;;;24.80;15.07;;;9.70;99.90;;;;;;4976697;28;20047;-80
2021/12/14 11:50:52;;;;;;;21.75;15.10;;;9.60;99.90;;;;;;4967032;28;20511;-81
2021/12/14 11:53:22;;;;;;;22.63;15.38;;;9.70;99.90;;;;;;4958428;28;20051;-79
2021/12/14 11:55:55;;;;;;;22.65;14.65;;;9.70;99.90;;;;;;4970406;28;20093;-81
2021/12/14 11:58:36;;;;;;;23.40;15.43;;;9.80;99.90;;;;;;4978121;28;20054;-80
2021/12/14 12:01:03;;;;;;;23.58;16.05;;;9.80;99.90;;;;;;4977982;28;20062;-81
2021/12/14 12:03:39;;;;;;;27.10;16.20;;;9.80;99.90;;;;;;4979214;28;20058;-79
2021/12/14 12:06:15;;;;;;;28.02;17.27;;;9.80;99.90;;;;;;4996976;28;20050;-79
2021/12/14 12:11:39;;;;;;;26.05;16.83;;;9.90;99.90;;;;;;4998319;28;20042;-81
2021/12/14 12:14:18;;;;;;;29.20;17.55;;;9.90;99.90;;;;;;4993233;28;20101;-82
2021/12/14 12:16:45;;;;;;;27.40;17.42;;;9.90;99.90;;;;;;4973694;28;20054;-81
2021/12/14 12:19:22;;;;;;;26.00;17.60;;;9.80;99.90;;;;;;4973564;28;20055;-82
2021/12/14 12:21:51;;;;;;;26.30;17.65;;;9.90;99.90;;;;;;4987678;28;20051;-82
2021/12/14 12:24:40;;;;;;;30.77;17.98;;;9.90;99.90;;;;;;4971064;28;20042;-80
2021/12/14 12:27:39;;;;;;;28.70;17.98;;;10.00;99.90;;;;;;4982782;28;20066;-79
2021/12/14 12:30:36;;;;;;;28.52;18.60;;;10.00;99.90;;;;;;4991394;28;20510;-82
2021/12/14 12:33:15;;;;;;;26.10;17.50;;;10.00;99.90;;;;;;4972021;28;20076;-81
2021/12/14 12:35:41;;;;;;;28.00;18.52;;;9.90;99.90;;;;;;4992309;28;20050;-81
2021/12/14 12:38:23;;;;;;;29.73;18.17;;;9.90;99.90;;;;;;4988883;28;20089;-81
2021/12/14 12:41:13;;;;;;;31.38;18.88;;;9.90;99.90;;;;;;4992357;28;20078;-79
2021/12/14 12:44:07;;;;;;;28.23;17.92;;;10.00;99.90;;;;;;4971394;28;20104;-82
2021/12/14 12:46:55;;;;;;;28.10;17.40;;;10.00;99.90;;;;;;4968362;28;20129;-78
2021/12/14 12:49:27;;;;;;;26.70;17.55;;;10.00;99.90;;;;;;4975463;28;20050;-79
2021/12/14 12:52:15;;;;;;;29.63;18.05;;;9.80;99.90;;;;;;5005036;28;20100;-81
2021/12/14 12:54:56;;;;;;;30.63;17.75;;;9.90;99.90;;;;;;4992035;28;20042;-81
2021/12/14 12:57:42;;;;;;;29.80;17.58;;;9.90;99.90;;;;;;4995990;28;20097;-78
2021/12/14 13:00:16;;;;;;;34.72;19.23;;;9.80;99.90;;;;;;4975723;28;20054;-81
2021/12/14 13:02:56;;;;;;;28.02;17.83;;;9.80;99.90;;;;;;4984011;28;20067;-79
2021/12/14 13:05:42;;;;;;;30.67;17.83;;;9.80;99.90;;;;;;4987527;28;20057;-78
2021/12/14 13:08:16;;;;;;;29.67;18.45;;;9.80;99.90;;;;;;4990521;28;20567;-79
2021/12/14 13:10:45;;;;;;;31.65;17.90;;;9.90;99.90;;;;;;5001269;28;20050;-81
2021/12/14 13:13:28;;;;;;;32.35;19.02;;;9.80;99.90;;;;;;4976198;28;20046;-80
2021/12/14 13:16:01;;;;;;;28.23;17.58;;;9.90;99.90;;;;;;4999450;28;20112;-74
2021/12/14 13:18:48;;;;;;;30.17;16.98;;;10.00;99.90;;;;;;4980524;28;20125;-75
2021/12/14 13:21:20;;;;;;;28.58;17.42;;;10.00;99.90;;;;;;4986277;28;20042;-76
2021/12/14 13:24:00;;;;;;;32.00;20.30;;;10.00;99.90;;;;;;4992924;28;20104;-81
2021/12/14 13:26:35;;;;;;;26.98;16.80;;;10.10;99.90;;;;;;4992752;28;20489;-80
2021/12/14 13:29:11;;;;;;;28.02;16.52;;;10.20;99.90;;;;;;4975352;28;20116;-83
2021/12/14 13:31:41;;;;;;;27.45;17.08;;;10.10;99.90;;;;;;4990749;28;20054;-80
2021/12/14 13:35:18;;;;;;;26.50;16.85;;;10.20;99.90;;;;;;4996528;28;20060;-85
2021/12/14 13:37:47;;;;;;;28.30;16.90;;;10.20;99.90;;;;;;4983355;28;20054;-79
2021/12/14 13:40:25;;;;;;;28.48;18.00;;;10.20;99.90;;;;;;4979283;28;20265;-79
2021/12/14 13:42:58;;;;;;;29.85;17.02;;;10.10;99.90;;;;;;5009373;28;20147;-80
2021/12/14 13:45:29;;;;;;;33.80;19.20;;;10.10;99.90;;;;;;4993706;28;20107;-78
2021/12/14 13:47:57;;;;;;;32.72;18.30;;;10.20;99.90;;;;;;4978515;28;20050;-78
2021/12/14 13:50:43;;;;;;;29.52;18.92;;;10.20;99.90;;;;;;4976553;28;20073;-78
2021/12/14 13:53:11;;;;;;;29.40;18.23;;;10.20;99.90;;;;;;4990305;28;20069;-79